createdAt,value
2017-10-01T19:18:51.297Z,12.69
2017-10-01T19:21:26.636Z,12.65
2017-10-01T19:24:03.347Z,12.68
2017-10-01T19:26:40.922Z,12.71
2017-10-01T19:29:16.582Z,12.71
2017-10-01T19:31:52.011Z,12.66
2017-10-01T19:34:28.587Z,12.63
2017-10-01T19:37:03.060Z,12.59
2017-10-01T19:39:37.628Z,12.55
2017-10-01T19:42:12.258Z,12.49
2017-10-01T19:44:39.099Z,12.47
2017-10-01T19:50:07.225Z,12.44
2017-10-01T19:52:34.127Z,12.39
2017-10-01T19:55:10.711Z,12.38
2017-10-01T19:57:45.587Z,12.37
2017-10-01T20:00:17.749Z,12.39
2017-10-01T20:02:45.192Z,12.40
2017-10-01T20:05:11.890Z,12.39
2017-10-01T20:07:47.456Z,12.33
2017-10-01T20:10:22.268Z,12.31
2017-10-01T20:13:01.652Z,12.26
2017-10-01T20:15:36.515Z,12.20
2017-10-01T20:18:11.489Z,12.12
2017-10-01T20:20:40.715Z,12.10
2017-10-01T20:23:16.989Z,12.00
2017-10-01T20:25:51.660Z,12.06
2017-10-01T20:28:30.838Z,12.03
2017-10-01T20:31:05.469Z,11.97
2017-10-01T20:33:32.270Z,12.00
2017-10-01T20:36:11.914Z,11.99
2017-10-01T20:38:50.504Z,12.00
2017-10-01T20:41:26.434Z,12.00
2017-10-01T20:44:01.435Z,11.95
2017-10-01T20:46:36.709Z,11.98
2017-10-01T20:49:07.157Z,11.94
2017-10-01T20:51:42.741Z,11.91
2017-10-01T20:54:34.177Z,11.81
2017-10-01T20:57:23.229Z,11.83
2017-10-01T20:59:54.077Z,11.82
2017-10-01T21:02:33.946Z,11.81
2017-10-01T21:05:10.728Z,11.81
2017-10-01T21:07:52.917Z,11.74
2017-10-01T21:10:32.573Z,11.71
2017-10-01T21:13:09.177Z,11.74
2017-10-01T21:15:47.463Z,11.70
2017-10-01T21:18:25.019Z,11.69
2017-10-01T21:21:14.138Z,11.68
2017-10-01T21:23:56.968Z,11.64
2017-10-01T21:26:40.340Z,11.64
2017-10-01T21:29:16.938Z,11.71
2017-10-01T21:31:59.610Z,11.76
2017-10-01T21:34:34.810Z,11.79
2017-10-01T21:37:12.545Z,11.75
2017-10-01T21:39:53.086Z,11.70
2017-10-01T21:42:33.176Z,11.68
2017-10-01T21:48:15.639Z,11.68
2017-10-01T21:53:35.029Z,11.77
2017-10-01T21:56:10.393Z,11.75
2017-10-01T21:58:57.146Z,11.73
2017-10-01T22:01:31.739Z,11.76
2017-10-01T22:04:11.226Z,11.84
2017-10-01T22:06:48.819Z,11.87
2017-10-01T22:09:27.118Z,11.84
2017-10-01T22:12:07.719Z,11.91
2017-10-01T22:14:51.844Z,11.87
2017-10-01T22:17:28.951Z,11.84
2017-10-01T22:20:04.538Z,11.80
2017-10-01T22:22:44.390Z,11.75
2017-10-01T22:25:27.543Z,11.75
2017-10-01T22:28:09.468Z,11.72
2017-10-01T22:30:47.622Z,11.79
2017-10-01T22:33:33.841Z,11.80
2017-10-01T22:36:10.233Z,11.78
2017-10-01T22:38:51.505Z,11.85
2017-10-01T22:41:28.507Z,11.89
2017-10-01T22:44:05.007Z,11.91
2017-10-01T22:46:40.620Z,11.95
2017-10-01T22:49:25.867Z,11.99
2017-10-01T22:52:03.571Z,11.89
2017-10-01T22:54:38.357Z,11.62
2017-10-01T22:57:14.868Z,11.55
2017-10-01T22:59:49.651Z,11.56
2017-10-01T23:02:25.499Z,11.49
2017-10-01T23:05:00.615Z,11.47
2017-10-01T23:07:35.246Z,11.46
2017-10-01T23:10:11.721Z,11.36
2017-10-01T23:12:57.501Z,11.34
2017-10-01T23:15:38.911Z,11.35
2017-10-01T23:21:02.695Z,11.24
2017-10-01T23:23:42.574Z,11.31
2017-10-01T23:26:33.288Z,11.25
2017-10-01T23:29:15.946Z,11.24
2017-10-01T23:31:55.823Z,11.24
2017-10-01T23:34:31.927Z,11.28
2017-10-01T23:37:09.134Z,11.22
2017-10-01T23:39:45.658Z,11.26
2017-10-01T23:48:20.276Z,11.29
2017-10-01T23:51:08.866Z,11.24
2017-10-01T23:53:44.853Z,11.23
2017-10-01T23:56:20.326Z,11.21
2017-10-01T23:58:58.056Z,11.15
